Terminal Aerodrome Forecast
Issued by NWS

Home | Current Version | Previous Version | Text Only | Print | Product List | Glossary Off
Versions: 1 2 3 4 5 6 7 8 9 10 11 12 13 14 15 16 17 18 19 20

000
FTUS43 KICT 060520
TAFSLN
TAF
KSLN 060520Z 0606/0706 18013KT P6SM SCT100 BKN250
     FM061200 22012KT P6SM BKN120
     FM061800 27012KT P6SM VCTS BKN060CB
     FM062000 35012G24KT P6SM VCTS BKN060CB
     FM070000 01015G25KT P6SM VCTS BKN060CB=

USA.gov is the U.S. government's official web portal to all federal, state and local government web resources and services.